sensor_id;sensor_type;location;lat;lon;timestamp;P1;durP1;ratioP1;P2;durP2;ratioP2
2408;SDS011;8463;48.094;7.970;2023-05-10T00:00:15;1.20;;;0.67;;
2408;SDS011;8463;48.094;7.970;2023-05-10T00:02:41;0.83;;;0.83;;
2408;SDS011;8463;48.094;7.970;2023-05-10T00:05:09;0.97;;;0.80;;
2408;SDS011;8463;48.094;7.970;2023-05-10T00:07:35;0.90;;;0.90;;
2408;SDS011;8463;48.094;7.970;2023-05-10T00:10:02;1.10;;;0.77;;
2408;SDS011;8463;48.094;7.970;2023-05-10T00:12:27;1.10;;;0.63;;
2408;SDS011;8463;48.094;7.970;2023-05-10T00:14:53;1.03;;;0.97;;
2408;SDS011;8463;48.094;7.970;2023-05-10T00:17:19;1.20;;;0.70;;
2408;SDS011;8463;48.094;7.970;2023-05-10T00:19:44;1.83;;;1.73;;
2408;SDS011;8463;48.094;7.970;2023-05-10T00:22:10;0.70;;;0.70;;
2408;SDS011;8463;48.094;7.970;2023-05-10T00:24:37;1.83;;;1.00;;
2408;SDS011;8463;48.094;7.970;2023-05-10T00:27:03;0.97;;;0.87;;
2408;SDS011;8463;48.094;7.970;2023-05-10T00:29:29;0.67;;;0.67;;
2408;SDS011;8463;48.094;7.970;2023-05-10T00:31:54;0.80;;;0.73;;
2408;SDS011;8463;48.094;7.970;2023-05-10T00:34:20;1.20;;;0.83;;
2408;SDS011;8463;48.094;7.970;2023-05-10T00:36:45;0.97;;;0.83;;
2408;SDS011;8463;48.094;7.970;2023-05-10T00:39:11;2.53;;;0.77;;
2408;SDS011;8463;48.094;7.970;2023-05-10T00:41:37;0.80;;;0.70;;
2408;SDS011;8463;48.094;7.970;2023-05-10T00:44:06;0.80;;;0.70;;
2408;SDS011;8463;48.094;7.970;2023-05-10T00:46:31;0.50;;;0.50;;
2408;SDS011;8463;48.094;7.970;2023-05-10T00:48:57;0.83;;;0.70;;
2408;SDS011;8463;48.094;7.970;2023-05-10T00:51:23;1.93;;;1.10;;
2408;SDS011;8463;48.094;7.970;2023-05-10T00:53:49;1.70;;;1.20;;
2408;SDS011;8463;48.094;7.970;2023-05-10T00:56:16;1.53;;;1.33;;
2408;SDS011;8463;48.094;7.970;2023-05-10T00:58:42;1.20;;;0.83;;
2408;SDS011;8463;48.094;7.970;2023-05-10T01:01:08;1.90;;;0.90;;
2408;SDS011;8463;48.094;7.970;2023-05-10T01:03:36;1.00;;;0.87;;
2408;SDS011;8463;48.094;7.970;2023-05-10T01:06:02;1.10;;;0.80;;
2408;SDS011;8463;48.094;7.970;2023-05-10T01:08:28;0.80;;;0.80;;
2408;SDS011;8463;48.094;7.970;2023-05-10T01:10:54;1.00;;;0.80;;
2408;SDS011;8463;48.094;7.970;2023-05-10T01:13:31;2.13;;;0.80;;
2408;SDS011;8463;48.094;7.970;2023-05-10T01:15:59;0.70;;;0.70;;
2408;SDS011;8463;48.094;7.970;2023-05-10T01:18:28;0.90;;;0.80;;
2408;SDS011;8463;48.094;7.970;2023-05-10T01:21:09;1.63;;;1.00;;
2408;SDS011;8463;48.094;7.970;2023-05-10T01:35:07;1.60;;;1.10;;
2408;SDS011;8463;48.094;7.970;2023-05-10T01:41:33;1.40;;;0.90;;
2408;SDS011;8463;48.094;7.970;2023-05-10T01:43:48;2.10;;;0.90;;
2408;SDS011;8463;48.094;7.970;2023-05-10T01:46:27;1.07;;;0.97;;
2408;SDS011;8463;48.094;7.970;2023-05-10T01:48:59;0.73;;;0.67;;
2408;SDS011;8463;48.094;7.970;2023-05-10T01:51:27;0.77;;;0.73;;
2408;SDS011;8463;48.094;7.970;2023-05-10T01:54:02;5.43;;;1.10;;
2408;SDS011;8463;48.094;7.970;2023-05-10T01:56:30;0.80;;;0.80;;
2408;SDS011;8463;48.094;7.970;2023-05-10T01:58:58;0.70;;;0.70;;
2408;SDS011;8463;48.094;7.970;2023-05-10T02:01:31;1.50;;;1.00;;
2408;SDS011;8463;48.094;7.970;2023-05-10T02:03:58;1.07;;;0.90;;
2408;SDS011;8463;48.094;7.970;2023-05-10T02:06:26;1.00;;;0.90;;
2408;SDS011;8463;48.094;7.970;2023-05-10T02:08:55;1.20;;;1.00;;
2408;SDS011;8463;48.094;7.970;2023-05-10T02:11:22;2.60;;;0.97;;
2408;SDS011;8463;48.094;7.970;2023-05-10T02:13:50;1.27;;;1.17;;
2408;SDS011;8463;48.094;7.970;2023-05-10T02:16:18;0.90;;;0.90;;
2408;SDS011;8463;48.094;7.970;2023-05-10T02:18:48;1.40;;;1.30;;
2408;SDS011;8463;48.094;7.970;2023-05-10T02:21:17;1.70;;;0.93;;
2408;SDS011;8463;48.094;7.970;2023-05-10T02:23:50;0.80;;;0.80;;
2408;SDS011;8463;48.094;7.970;2023-05-10T02:26:16;1.03;;;1.00;;
2408;SDS011;8463;48.094;7.970;2023-05-10T02:28:46;3.10;;;1.10;;
2408;SDS011;8463;48.094;7.970;2023-05-10T02:31:16;1.00;;;0.90;;
2408;SDS011;8463;48.094;7.970;2023-05-10T02:33:49;1.87;;;1.00;;
2408;SDS011;8463;48.094;7.970;2023-05-10T02:36:16;1.20;;;1.10;;
2408;SDS011;8463;48.094;7.970;2023-05-10T02:38:42;2.60;;;1.27;;
2408;SDS011;8463;48.094;7.970;2023-05-10T02:41:09;1.57;;;1.37;;
2408;SDS011;8463;48.094;7.970;2023-05-10T02:43:36;1.00;;;0.90;;
2408;SDS011;8463;48.094;7.970;2023-05-10T02:46:05;0.80;;;0.80;;
2408;SDS011;8463;48.094;7.970;2023-05-10T02:48:31;3.27;;;1.50;;
2408;SDS011;8463;48.094;7.970;2023-05-10T02:51:00;0.83;;;0.80;;
2408;SDS011;8463;48.094;7.970;2023-05-10T02:53:33;6.37;;;1.27;;
2408;SDS011;8463;48.094;7.970;2023-05-10T02:56:02;0.93;;;0.83;;
2408;SDS011;8463;48.094;7.970;2023-05-10T02:58:32;1.30;;;0.90;;
2408;SDS011;8463;48.094;7.970;2023-05-10T03:00:59;1.00;;;0.90;;
2408;SDS011;8463;48.094;7.970;2023-05-10T03:03:32;1.83;;;1.00;;
2408;SDS011;8463;48.094;7.970;2023-05-10T03:05:58;1.20;;;1.00;;
2408;SDS011;8463;48.094;7.970;2023-05-10T03:08:24;1.20;;;1.00;;
2408;SDS011;8463;48.094;7.970;2023-05-10T03:11:14;1.20;;;0.80;;
2408;SDS011;8463;48.094;7.970;2023-05-10T03:16:14;1.20;;;1.10;;
2408;SDS011;8463;48.094;7.970;2023-05-10T03:21:47;1.20;;;1.10;;
2408;SDS011;8463;48.094;7.970;2023-05-10T03:24:16;1.10;;;1.00;;
2408;SDS011;8463;48.094;7.970;2023-05-10T03:26:49;1.10;;;1.00;;
2408;SDS011;8463;48.094;7.970;2023-05-10T03:29:19;6.80;;;1.20;;
2408;SDS011;8463;48.094;7.970;2023-05-10T03:31:46;1.10;;;0.90;;
2408;SDS011;8463;48.094;7.970;2023-05-10T03:34:12;1.00;;;0.90;;
2408;SDS011;8463;48.094;7.970;2023-05-10T03:36:38;1.27;;;0.90;;
2408;SDS011;8463;48.094;7.970;2023-05-10T03:39:04;1.27;;;1.00;;
2408;SDS011;8463;48.094;7.970;2023-05-10T03:41:30;1.87;;;0.80;;
2408;SDS011;8463;48.094;7.970;2023-05-10T03:43:55;1.27;;;1.17;;
2408;SDS011;8463;48.094;7.970;2023-05-10T03:46:21;2.30;;;1.30;;
2408;SDS011;8463;48.094;7.970;2023-05-10T03:48:47;3.90;;;1.10;;
2408;SDS011;8463;48.094;7.970;2023-05-10T03:51:12;1.30;;;1.10;;
2408;SDS011;8463;48.094;7.970;2023-05-10T03:53:38;1.57;;;1.00;;
2408;SDS011;8463;48.094;7.970;2023-05-10T03:56:03;0.83;;;0.80;;
2408;SDS011;8463;48.094;7.970;2023-05-10T03:58:29;1.77;;;1.20;;
2408;SDS011;8463;48.094;7.970;2023-05-10T04:00:55;1.63;;;1.00;;
2408;SDS011;8463;48.094;7.970;2023-05-10T04:03:21;1.20;;;1.10;;
2408;SDS011;8463;48.094;7.970;2023-05-10T04:06:01;2.30;;;1.47;;
2408;SDS011;8463;48.094;7.970;2023-05-10T04:08:33;2.30;;;1.40;;
2408;SDS011;8463;48.094;7.970;2023-05-10T04:11:10;1.80;;;1.60;;
2408;SDS011;8463;48.094;7.970;2023-05-10T04:13:37;2.17;;;1.17;;
2408;SDS011;8463;48.094;7.970;2023-05-10T04:16:03;1.33;;;1.23;;
2408;SDS011;8463;48.094;7.970;2023-05-10T04:18:29;3.30;;;1.87;;
2408;SDS011;8463;48.094;7.970;2023-05-10T04:21:01;1.60;;;1.50;;
2408;SDS011;8463;48.094;7.970;2023-05-10T04:23:27;1.60;;;1.50;;
2408;SDS011;8463;48.094;7.970;2023-05-10T04:25:52;1.43;;;1.33;;
2408;SDS011;8463;48.094;7.970;2023-05-10T04:28:23;1.50;;;1.30;;
2408;SDS011;8463;48.094;7.970;2023-05-10T04:30:49;1.13;;;0.93;;
2408;SDS011;8463;48.094;7.970;2023-05-10T04:33:14;1.27;;;1.17;;
2408;SDS011;8463;48.094;7.970;2023-05-10T04:35:40;1.37;;;1.27;;
2408;SDS011;8463;48.094;7.970;2023-05-10T04:38:09;1.67;;;1.57;;
2408;SDS011;8463;48.094;7.970;2023-05-10T04:40:36;1.00;;;1.00;;
2408;SDS011;8463;48.094;7.970;2023-05-10T04:43:02;1.23;;;1.13;;
2408;SDS011;8463;48.094;7.970;2023-05-10T04:45:28;2.03;;;1.47;;
2408;SDS011;8463;48.094;7.970;2023-05-10T04:47:53;1.67;;;1.20;;
2408;SDS011;8463;48.094;7.970;2023-05-10T04:50:19;1.20;;;1.10;;
2408;SDS011;8463;48.094;7.970;2023-05-10T04:52:45;1.77;;;1.10;;
2408;SDS011;8463;48.094;7.970;2023-05-10T04:55:10;1.67;;;1.53;;
2408;SDS011;8463;48.094;7.970;2023-05-10T04:57:44;3.53;;;1.70;;
2408;SDS011;8463;48.094;7.970;2023-05-10T05:00:12;1.53;;;1.43;;
2408;SDS011;8463;48.094;7.970;2023-05-10T05:02:41;1.70;;;1.60;;
2408;SDS011;8463;48.094;7.970;2023-05-10T05:05:09;2.30;;;2.10;;
2408;SDS011;8463;48.094;7.970;2023-05-10T05:07:35;2.00;;;1.37;;
2408;SDS011;8463;48.094;7.970;2023-05-10T05:10:00;2.03;;;1.50;;
2408;SDS011;8463;48.094;7.970;2023-05-10T05:12:28;1.80;;;1.50;;
2408;SDS011;8463;48.094;7.970;2023-05-10T05:14:57;1.70;;;1.10;;
2408;SDS011;8463;48.094;7.970;2023-05-10T05:17:23;1.10;;;1.00;;
2408;SDS011;8463;48.094;7.970;2023-05-10T05:19:49;3.27;;;1.47;;
2408;SDS011;8463;48.094;7.970;2023-05-10T05:22:20;1.43;;;1.20;;
2408;SDS011;8463;48.094;7.970;2023-05-10T05:24:56;1.50;;;1.40;;
2408;SDS011;8463;48.094;7.970;2023-05-10T05:27:23;1.23;;;1.13;;
2408;SDS011;8463;48.094;7.970;2023-05-10T05:29:54;1.47;;;1.37;;
2408;SDS011;8463;48.094;7.970;2023-05-10T05:32:29;1.40;;;1.30;;
2408;SDS011;8463;48.094;7.970;2023-05-10T05:34:55;1.77;;;1.60;;
2408;SDS011;8463;48.094;7.970;2023-05-10T05:37:21;1.30;;;1.20;;
2408;SDS011;8463;48.094;7.970;2023-05-10T05:39:50;1.20;;;1.10;;
2408;SDS011;8463;48.094;7.970;2023-05-10T05:42:15;1.90;;;1.27;;
2408;SDS011;8463;48.094;7.970;2023-05-10T05:44:43;2.93;;;1.50;;
2408;SDS011;8463;48.094;7.970;2023-05-10T05:47:09;1.23;;;1.17;;
2408;SDS011;8463;48.094;7.970;2023-05-10T05:49:35;1.30;;;1.20;;
2408;SDS011;8463;48.094;7.970;2023-05-10T05:52:04;1.40;;;1.30;;
2408;SDS011;8463;48.094;7.970;2023-05-10T05:54:30;1.33;;;1.23;;
2408;SDS011;8463;48.094;7.970;2023-05-10T05:56:56;1.20;;;1.10;;
2408;SDS011;8463;48.094;7.970;2023-05-10T05:59:23;1.67;;;1.57;;
2408;SDS011;8463;48.094;7.970;2023-05-10T06:01:49;1.40;;;1.30;;
2408;SDS011;8463;48.094;7.970;2023-05-10T06:04:15;1.33;;;1.23;;
2408;SDS011;8463;48.094;7.970;2023-05-10T06:06:41;4.50;;;3.17;;
2408;SDS011;8463;48.094;7.970;2023-05-10T06:09:09;2.10;;;1.90;;
2408;SDS011;8463;48.094;7.970;2023-05-10T06:11:35;3.77;;;1.80;;
2408;SDS011;8463;48.094;7.970;2023-05-10T06:14:02;2.00;;;1.80;;
2408;SDS011;8463;48.094;7.970;2023-05-10T06:16:29;2.40;;;2.10;;
2408;SDS011;8463;48.094;7.970;2023-05-10T06:19:05;3.70;;;3.13;;
2408;SDS011;8463;48.094;7.970;2023-05-10T06:21:31;3.93;;;2.70;;
2408;SDS011;8463;48.094;7.970;2023-05-10T06:23:57;3.50;;;2.90;;
2408;SDS011;8463;48.094;7.970;2023-05-10T06:26:22;3.00;;;2.70;;
2408;SDS011;8463;48.094;7.970;2023-05-10T06:28:48;2.80;;;2.40;;
2408;SDS011;8463;48.094;7.970;2023-05-10T06:31:14;2.40;;;2.20;;
2408;SDS011;8463;48.094;7.970;2023-05-10T06:33:39;2.20;;;2.00;;
2408;SDS011;8463;48.094;7.970;2023-05-10T06:36:05;2.53;;;2.33;;
2408;SDS011;8463;48.094;7.970;2023-05-10T06:38:31;2.77;;;1.70;;
2408;SDS011;8463;48.094;7.970;2023-05-10T06:40:59;1.57;;;1.47;;
2408;SDS011;8463;48.094;7.970;2023-05-10T06:43:24;1.83;;;1.63;;
2408;SDS011;8463;48.094;7.970;2023-05-10T06:45:51;1.83;;;1.57;;
2408;SDS011;8463;48.094;7.970;2023-05-10T06:48:18;1.70;;;1.50;;
2408;SDS011;8463;48.094;7.970;2023-05-10T06:50:43;1.57;;;1.30;;
2408;SDS011;8463;48.094;7.970;2023-05-10T06:53:10;3.67;;;1.70;;
2408;SDS011;8463;48.094;7.970;2023-05-10T06:55:37;2.03;;;1.40;;
2408;SDS011;8463;48.094;7.970;2023-05-10T06:58:02;1.57;;;1.30;;
2408;SDS011;8463;48.094;7.970;2023-05-10T07:00:28;2.50;;;1.20;;
2408;SDS011;8463;48.094;7.970;2023-05-10T07:02:55;1.40;;;1.30;;
2408;SDS011;8463;48.094;7.970;2023-05-10T07:05:21;1.60;;;1.33;;
2408;SDS011;8463;48.094;7.970;2023-05-10T07:07:46;1.73;;;1.53;;
2408;SDS011;8463;48.094;7.970;2023-05-10T07:10:12;1.57;;;1.37;;
2408;SDS011;8463;48.094;7.970;2023-05-10T07:12:38;1.93;;;1.73;;
2408;SDS011;8463;48.094;7.970;2023-05-10T07:15:04;1.67;;;1.57;;
2408;SDS011;8463;48.094;7.970;2023-05-10T07:17:30;4.27;;;1.60;;
2408;SDS011;8463;48.094;7.970;2023-05-10T07:19:58;2.60;;;1.60;;
2408;SDS011;8463;48.094;7.970;2023-05-10T07:22:24;1.43;;;1.33;;
2408;SDS011;8463;48.094;7.970;2023-05-10T07:24:50;4.67;;;1.47;;
2408;SDS011;8463;48.094;7.970;2023-05-10T07:27:16;3.50;;;1.57;;
2408;SDS011;8463;48.094;7.970;2023-05-10T07:29:42;2.13;;;1.77;;
2408;SDS011;8463;48.094;7.970;2023-05-10T07:32:07;4.13;;;1.90;;
2408;SDS011;8463;48.094;7.970;2023-05-10T07:34:33;2.00;;;1.73;;
2408;SDS011;8463;48.094;7.970;2023-05-10T07:36:59;1.50;;;1.40;;
2408;SDS011;8463;48.094;7.970;2023-05-10T07:39:26;3.40;;;1.77;;
2408;SDS011;8463;48.094;7.970;2023-05-10T07:41:55;3.37;;;2.50;;
2408;SDS011;8463;48.094;7.970;2023-05-10T07:44:20;2.30;;;1.83;;
2408;SDS011;8463;48.094;7.970;2023-05-10T07:46:46;3.90;;;3.03;;
2408;SDS011;8463;48.094;7.970;2023-05-10T07:49:14;6.80;;;3.47;;
2408;SDS011;8463;48.094;7.970;2023-05-10T07:51:40;4.10;;;1.93;;
2408;SDS011;8463;48.094;7.970;2023-05-10T07:54:05;3.33;;;2.93;;
2408;SDS011;8463;48.094;7.970;2023-05-10T07:56:31;2.30;;;2.10;;
2408;SDS011;8463;48.094;7.970;2023-05-10T07:58:58;3.90;;;2.30;;
2408;SDS011;8463;48.094;7.970;2023-05-10T08:01:24;2.70;;;2.43;;
2408;SDS011;8463;48.094;7.970;2023-05-10T08:03:50;2.23;;;1.93;;
2408;SDS011;8463;48.094;7.970;2023-05-10T08:06:18;4.80;;;2.73;;
2408;SDS011;8463;48.094;7.970;2023-05-10T08:08:48;3.43;;;2.50;;
2408;SDS011;8463;48.094;7.970;2023-05-10T08:11:16;2.60;;;1.90;;
2408;SDS011;8463;48.094;7.970;2023-05-10T08:13:42;2.83;;;2.40;;
2408;SDS011;8463;48.094;7.970;2023-05-10T08:16:08;2.10;;;1.83;;
2408;SDS011;8463;48.094;7.970;2023-05-10T08:18:34;2.07;;;1.50;;
2408;SDS011;8463;48.094;7.970;2023-05-10T08:21:00;1.60;;;1.43;;
2408;SDS011;8463;48.094;7.970;2023-05-10T08:23:25;1.90;;;1.47;;
2408;SDS011;8463;48.094;7.970;2023-05-10T08:25:51;3.43;;;1.90;;
2408;SDS011;8463;48.094;7.970;2023-05-10T08:28:17;2.60;;;1.53;;
2408;SDS011;8463;48.094;7.970;2023-05-10T08:30:42;2.53;;;2.33;;
2408;SDS011;8463;48.094;7.970;2023-05-10T08:33:08;3.97;;;3.17;;
2408;SDS011;8463;48.094;7.970;2023-05-10T08:35:34;2.27;;;1.97;;
2408;SDS011;8463;48.094;7.970;2023-05-10T08:38:00;2.17;;;1.53;;
2408;SDS011;8463;48.094;7.970;2023-05-10T08:40:27;3.70;;;1.47;;
2408;SDS011;8463;48.094;7.970;2023-05-10T08:43:15;3.07;;;1.17;;
2408;SDS011;8463;48.094;7.970;2023-05-10T08:45:42;2.17;;;1.70;;
2408;SDS011;8463;48.094;7.970;2023-05-10T08:48:12;1.40;;;1.30;;
2408;SDS011;8463;48.094;7.970;2023-05-10T08:50:40;4.23;;;2.17;;
2408;SDS011;8463;48.094;7.970;2023-05-10T08:53:10;2.23;;;2.03;;
2408;SDS011;8463;48.094;7.970;2023-05-10T08:55:37;2.17;;;1.83;;
2408;SDS011;8463;48.094;7.970;2023-05-10T08:58:07;2.20;;;2.00;;
2408;SDS011;8463;48.094;7.970;2023-05-10T09:00:33;3.00;;;2.50;;
2408;SDS011;8463;48.094;7.970;2023-05-10T09:03:00;1.73;;;1.50;;
2408;SDS011;8463;48.094;7.970;2023-05-10T09:05:26;1.53;;;1.43;;
2408;SDS011;8463;48.094;7.970;2023-05-10T09:07:52;1.70;;;1.50;;
2408;SDS011;8463;48.094;7.970;2023-05-10T09:10:18;2.50;;;1.40;;
2408;SDS011;8463;48.094;7.970;2023-05-10T09:12:45;1.43;;;1.30;;
2408;SDS011;8463;48.094;7.970;2023-05-10T09:15:11;3.77;;;1.80;;
2408;SDS011;8463;48.094;7.970;2023-05-10T09:17:40;4.70;;;2.20;;
2408;SDS011;8463;48.094;7.970;2023-05-10T09:20:07;4.10;;;1.53;;
2408;SDS011;8463;48.094;7.970;2023-05-10T09:22:33;2.87;;;1.00;;
2408;SDS011;8463;48.094;7.970;2023-05-10T09:27:33;2.73;;;1.50;;
2408;SDS011;8463;48.094;7.970;2023-05-10T09:30:00;1.90;;;1.50;;
2408;SDS011;8463;48.094;7.970;2023-05-10T09:32:45;4.83;;;1.10;;
2408;SDS011;8463;48.094;7.970;2023-05-10T09:35:13;2.30;;;1.17;;
2408;SDS011;8463;48.094;7.970;2023-05-10T09:37:46;5.03;;;1.73;;
2408;SDS011;8463;48.094;7.970;2023-05-10T09:40:14;4.60;;;1.67;;
2408;SDS011;8463;48.094;7.970;2023-05-10T09:42:51;2.00;;;1.00;;
2408;SDS011;8463;48.094;7.970;2023-05-10T09:45:18;3.00;;;1.40;;
2408;SDS011;8463;48.094;7.970;2023-05-10T09:47:45;2.13;;;1.67;;
2408;SDS011;8463;48.094;7.970;2023-05-10T09:50:11;1.80;;;1.70;;
2408;SDS011;8463;48.094;7.970;2023-05-10T09:55:15;1.80;;;1.47;;
2408;SDS011;8463;48.094;7.970;2023-05-10T09:57:41;2.20;;;1.33;;
2408;SDS011;8463;48.094;7.970;2023-05-10T10:00:07;3.20;;;1.50;;
2408;SDS011;8463;48.094;7.970;2023-05-10T10:02:39;2.80;;;1.77;;
2408;SDS011;8463;48.094;7.970;2023-05-10T10:05:06;4.13;;;2.17;;
2408;SDS011;8463;48.094;7.970;2023-05-10T10:07:32;2.30;;;2.03;;
2408;SDS011;8463;48.094;7.970;2023-05-10T10:09:59;3.67;;;1.47;;
2408;SDS011;8463;48.094;7.970;2023-05-10T10:12:25;2.47;;;1.97;;
2408;SDS011;8463;48.094;7.970;2023-05-10T10:14:51;5.43;;;1.70;;
2408;SDS011;8463;48.094;7.970;2023-05-10T10:17:20;2.20;;;1.60;;
2408;SDS011;8463;48.094;7.970;2023-05-10T10:19:46;3.33;;;1.60;;
2408;SDS011;8463;48.094;7.970;2023-05-10T10:22:14;2.40;;;1.60;;
2408;SDS011;8463;48.094;7.970;2023-05-10T10:24:39;2.40;;;1.37;;
2408;SDS011;8463;48.094;7.970;2023-05-10T10:27:12;2.10;;;1.67;;
2408;SDS011;8463;48.094;7.970;2023-05-10T10:35:37;1.80;;;1.47;;
2408;SDS011;8463;48.094;7.970;2023-05-10T10:38:03;2.00;;;1.30;;
2408;SDS011;8463;48.094;7.970;2023-05-10T10:40:30;1.17;;;1.07;;
2408;SDS011;8463;48.094;7.970;2023-05-10T10:42:57;3.10;;;1.30;;
2408;SDS011;8463;48.094;7.970;2023-05-10T10:45:23;1.60;;;1.40;;
2408;SDS011;8463;48.094;7.970;2023-05-10T10:47:56;2.07;;;1.40;;
2408;SDS011;8463;48.094;7.970;2023-05-10T10:50:57;2.40;;;1.20;;
2408;SDS011;8463;48.094;7.970;2023-05-10T10:53:26;2.20;;;1.50;;
2408;SDS011;8463;48.094;7.970;2023-05-10T10:56:06;3.30;;;1.53;;
2408;SDS011;8463;48.094;7.970;2023-05-10T10:58:37;1.70;;;1.40;;
2408;SDS011;8463;48.094;7.970;2023-05-10T11:01:24;2.70;;;1.40;;
2408;SDS011;8463;48.094;7.970;2023-05-10T11:06:31;1.73;;;1.20;;
2408;SDS011;8463;48.094;7.970;2023-05-10T11:08:58;1.57;;;1.23;;
2408;SDS011;8463;48.094;7.970;2023-05-10T11:11:25;3.40;;;1.13;;
2408;SDS011;8463;48.094;7.970;2023-05-10T11:13:51;1.30;;;1.00;;
2408;SDS011;8463;48.094;7.970;2023-05-10T11:18:56;1.60;;;1.03;;
2408;SDS011;8463;48.094;7.970;2023-05-10T11:21:33;5.17;;;1.10;;
2408;SDS011;8463;48.094;7.970;2023-05-10T11:24:00;2.93;;;1.63;;
2408;SDS011;8463;48.094;7.970;2023-05-10T11:26:33;1.20;;;0.87;;
2408;SDS011;8463;48.094;7.970;2023-05-10T11:29:00;1.20;;;1.10;;
2408;SDS011;8463;48.094;7.970;2023-05-10T11:31:27;1.97;;;1.20;;
2408;SDS011;8463;48.094;7.970;2023-05-10T11:33:54;4.87;;;1.10;;
2408;SDS011;8463;48.094;7.970;2023-05-10T11:36:23;2.77;;;1.43;;
2408;SDS011;8463;48.094;7.970;2023-05-10T11:38:50;1.33;;;0.87;;
2408;SDS011;8463;48.094;7.970;2023-05-10T11:41:19;2.13;;;1.30;;
2408;SDS011;8463;48.094;7.970;2023-05-10T11:43:51;2.63;;;1.10;;
2408;SDS011;8463;48.094;7.970;2023-05-10T11:46:18;1.60;;;1.10;;
2408;SDS011;8463;48.094;7.970;2023-05-10T11:48:45;1.73;;;1.60;;
2408;SDS011;8463;48.094;7.970;2023-05-10T11:51:19;1.77;;;1.03;;
2408;SDS011;8463;48.094;7.970;2023-05-10T11:53:46;2.23;;;1.10;;
2408;SDS011;8463;48.094;7.970;2023-05-10T11:56:16;1.47;;;1.10;;
2408;SDS011;8463;48.094;7.970;2023-05-10T11:58:42;2.80;;;1.03;;
2408;SDS011;8463;48.094;7.970;2023-05-10T12:01:07;2.40;;;1.10;;
2408;SDS011;8463;48.094;7.970;2023-05-10T12:03:34;2.40;;;0.90;;
2408;SDS011;8463;48.094;7.970;2023-05-10T12:06:06;2.00;;;1.00;;
2408;SDS011;8463;48.094;7.970;2023-05-10T12:08:32;0.90;;;0.80;;
2408;SDS011;8463;48.094;7.970;2023-05-10T12:11:08;2.00;;;1.13;;
2408;SDS011;8463;48.094;7.970;2023-05-10T12:13:39;2.07;;;0.80;;
2408;SDS011;8463;48.094;7.970;2023-05-10T12:16:15;2.00;;;1.00;;
2408;SDS011;8463;48.094;7.970;2023-05-10T12:18:42;3.73;;;1.57;;
2408;SDS011;8463;48.094;7.970;2023-05-10T12:21:09;2.17;;;1.13;;
2408;SDS011;8463;48.094;7.970;2023-05-10T12:23:40;3.47;;;1.10;;
2408;SDS011;8463;48.094;7.970;2023-05-10T12:26:12;1.83;;;1.03;;
2408;SDS011;8463;48.094;7.970;2023-05-10T12:28:39;1.53;;;1.10;;
2408;SDS011;8463;48.094;7.970;2023-05-10T12:31:10;2.10;;;0.90;;
2408;SDS011;8463;48.094;7.970;2023-05-10T12:33:38;1.70;;;0.90;;
2408;SDS011;8463;48.094;7.970;2023-05-10T12:36:15;2.53;;;0.93;;
2408;SDS011;8463;48.094;7.970;2023-05-10T12:38:42;2.20;;;0.87;;
2408;SDS011;8463;48.094;7.970;2023-05-10T12:41:10;0.80;;;0.77;;
2408;SDS011;8463;48.094;7.970;2023-05-10T12:43:38;1.10;;;0.90;;
2408;SDS011;8463;48.094;7.970;2023-05-10T12:46:06;1.80;;;0.77;;
2408;SDS011;8463;48.094;7.970;2023-05-10T12:48:42;1.63;;;1.10;;
2408;SDS011;8463;48.094;7.970;2023-05-10T12:51:09;1.00;;;0.90;;
2408;SDS011;8463;48.094;7.970;2023-05-10T12:53:38;2.20;;;0.90;;
2408;SDS011;8463;48.094;7.970;2023-05-10T12:56:07;1.10;;;1.00;;
2408;SDS011;8463;48.094;7.970;2023-05-10T12:58:33;2.47;;;1.00;;
2408;SDS011;8463;48.094;7.970;2023-05-10T13:01:04;2.10;;;1.00;;
2408;SDS011;8463;48.094;7.970;2023-05-10T13:03:30;1.60;;;0.90;;
2408;SDS011;8463;48.094;7.970;2023-05-10T13:05:56;0.70;;;0.60;;
2408;SDS011;8463;48.094;7.970;2023-05-10T13:08:21;2.60;;;0.90;;
2408;SDS011;8463;48.094;7.970;2023-05-10T13:10:47;5.17;;;1.23;;
2408;SDS011;8463;48.094;7.970;2023-05-10T13:13:13;1.83;;;0.60;;
2408;SDS011;8463;48.094;7.970;2023-05-10T13:15:39;2.67;;;0.93;;
2408;SDS011;8463;48.094;7.970;2023-05-10T13:18:05;1.33;;;0.87;;
2408;SDS011;8463;48.094;7.970;2023-05-10T13:20:30;0.97;;;0.90;;
2408;SDS011;8463;48.094;7.970;2023-05-10T13:22:56;1.13;;;1.00;;
2408;SDS011;8463;48.094;7.970;2023-05-10T13:25:21;1.20;;;1.00;;
2408;SDS011;8463;48.094;7.970;2023-05-10T13:27:47;2.63;;;0.97;;
2408;SDS011;8463;48.094;7.970;2023-05-10T13:30:13;6.43;;;1.00;;
2408;SDS011;8463;48.094;7.970;2023-05-10T13:32:38;1.20;;;0.90;;
2408;SDS011;8463;48.094;7.970;2023-05-10T13:35:04;1.10;;;0.70;;
2408;SDS011;8463;48.094;7.970;2023-05-10T13:37:31;1.20;;;0.63;;
2408;SDS011;8463;48.094;7.970;2023-05-10T13:40:06;1.00;;;0.87;;
2408;SDS011;8463;48.094;7.970;2023-05-10T13:42:32;2.00;;;0.90;;
2408;SDS011;8463;48.094;7.970;2023-05-10T13:44:58;3.43;;;1.30;;
2408;SDS011;8463;48.094;7.970;2023-05-10T13:47:25;0.70;;;0.60;;
2408;SDS011;8463;48.094;7.970;2023-05-10T13:49:51;0.50;;;0.50;;
2408;SDS011;8463;48.094;7.970;2023-05-10T13:52:21;2.10;;;0.73;;
2408;SDS011;8463;48.094;7.970;2023-05-10T13:54:46;1.07;;;0.50;;
2408;SDS011;8463;48.094;7.970;2023-05-10T13:57:12;1.60;;;0.80;;
2408;SDS011;8463;48.094;7.970;2023-05-10T13:59:38;1.00;;;0.70;;
2408;SDS011;8463;48.094;7.970;2023-05-10T14:02:04;1.23;;;0.70;;
2408;SDS011;8463;48.094;7.970;2023-05-10T14:04:31;0.77;;;0.60;;
2408;SDS011;8463;48.094;7.970;2023-05-10T14:07:00;0.90;;;0.60;;
2408;SDS011;8463;48.094;7.970;2023-05-10T14:09:26;0.60;;;0.60;;
2408;SDS011;8463;48.094;7.970;2023-05-10T14:11:52;1.83;;;0.80;;
2408;SDS011;8463;48.094;7.970;2023-05-10T14:14:18;1.47;;;0.63;;
2408;SDS011;8463;48.094;7.970;2023-05-10T14:16:44;1.53;;;0.60;;
2408;SDS011;8463;48.094;7.970;2023-05-10T14:19:10;0.57;;;0.50;;
2408;SDS011;8463;48.094;7.970;2023-05-10T14:21:36;1.40;;;0.70;;
2408;SDS011;8463;48.094;7.970;2023-05-10T14:24:02;1.47;;;0.57;;
2408;SDS011;8463;48.094;7.970;2023-05-10T14:26:28;0.70;;;0.67;;
2408;SDS011;8463;48.094;7.970;2023-05-10T14:28:53;1.63;;;0.60;;
2408;SDS011;8463;48.094;7.970;2023-05-10T14:31:25;1.27;;;0.60;;
2408;SDS011;8463;48.094;7.970;2023-05-10T14:33:51;1.00;;;0.50;;
2408;SDS011;8463;48.094;7.970;2023-05-10T14:36:19;0.70;;;0.50;;
2408;SDS011;8463;48.094;7.970;2023-05-10T14:38:45;0.80;;;0.60;;
2408;SDS011;8463;48.094;7.970;2023-05-10T14:41:11;2.97;;;0.93;;
2408;SDS011;8463;48.094;7.970;2023-05-10T14:43:39;0.73;;;0.63;;
2408;SDS011;8463;48.094;7.970;2023-05-10T14:46:06;2.27;;;0.60;;
2408;SDS011;8463;48.094;7.970;2023-05-10T14:48:31;0.60;;;0.40;;
2408;SDS011;8463;48.094;7.970;2023-05-10T14:50:57;1.00;;;0.40;;
2408;SDS011;8463;48.094;7.970;2023-05-10T14:53:23;1.63;;;0.70;;
2408;SDS011;8463;48.094;7.970;2023-05-10T14:55:48;2.20;;;0.50;;
2408;SDS011;8463;48.094;7.970;2023-05-10T14:58:14;0.77;;;0.50;;
2408;SDS011;8463;48.094;7.970;2023-05-10T15:00:43;0.60;;;0.57;;
2408;SDS011;8463;48.094;7.970;2023-05-10T15:03:09;1.07;;;0.70;;
2408;SDS011;8463;48.094;7.970;2023-05-10T15:05:35;0.60;;;0.50;;
2408;SDS011;8463;48.094;7.970;2023-05-10T15:08:02;1.90;;;0.67;;
2408;SDS011;8463;48.094;7.970;2023-05-10T15:10:28;1.77;;;0.50;;
2408;SDS011;8463;48.094;7.970;2023-05-10T15:12:56;1.40;;;0.50;;
2408;SDS011;8463;48.094;7.970;2023-05-10T15:15:24;1.33;;;0.60;;
2408;SDS011;8463;48.094;7.970;2023-05-10T15:17:49;1.33;;;0.60;;
2408;SDS011;8463;48.094;7.970;2023-05-10T15:20:16;1.33;;;0.70;;
2408;SDS011;8463;48.094;7.970;2023-05-10T15:22:44;1.63;;;0.50;;
2408;SDS011;8463;48.094;7.970;2023-05-10T15:25:13;0.90;;;0.70;;
2408;SDS011;8463;48.094;7.970;2023-05-10T15:27:40;3.27;;;0.60;;
2408;SDS011;8463;48.094;7.970;2023-05-10T15:30:06;0.87;;;0.50;;
2408;SDS011;8463;48.094;7.970;2023-05-10T15:32:32;0.80;;;0.70;;
2408;SDS011;8463;48.094;7.970;2023-05-10T15:35:00;1.00;;;0.50;;
2408;SDS011;8463;48.094;7.970;2023-05-10T15:37:27;0.60;;;0.47;;
2408;SDS011;8463;48.094;7.970;2023-05-10T15:39:53;0.73;;;0.60;;
2408;SDS011;8463;48.094;7.970;2023-05-10T15:42:28;0.70;;;0.63;;
2408;SDS011;8463;48.094;7.970;2023-05-10T15:44:54;0.80;;;0.53;;
2408;SDS011;8463;48.094;7.970;2023-05-10T15:47:20;2.53;;;0.63;;
2408;SDS011;8463;48.094;7.970;2023-05-10T15:49:46;0.70;;;0.50;;
2408;SDS011;8463;48.094;7.970;2023-05-10T15:52:11;0.87;;;0.67;;
2408;SDS011;8463;48.094;7.970;2023-05-10T15:54:37;2.30;;;0.70;;